sensor_id;sensor_type;location;lat;lon;timestamp;temperature;humidity
65559;DHT22;52203;51.998;5.140;2022-08-04T00:01:23;13.78;118.99
65559;DHT22;52203;51.998;5.140;2022-08-04T00:04:02;13.70;118.99
65559;DHT22;52203;51.998;5.140;2022-08-04T00:09:56;13.69;118.99
65559;DHT22;52203;51.998;5.140;2022-08-04T00:12:25;13.65;118.99
65559;DHT22;52203;51.998;5.140;2022-08-04T00:14:57;13.64;118.99
65559;DHT22;52203;51.998;5.140;2022-08-04T00:17:29;13.64;118.99
65559;DHT22;52203;51.998;5.140;2022-08-04T00:19:59;13.61;118.99
65559;DHT22;52203;51.998;5.140;2022-08-04T00:22:27;13.56;118.99
65559;DHT22;52203;51.998;5.140;2022-08-04T00:24:54;13.54;118.99
65559;DHT22;52203;51.998;5.140;2022-08-04T00:27:20;13.49;118.99
65559;DHT22;52203;51.998;5.140;2022-08-04T00:29:46;13.46;118.99
65559;DHT22;52203;51.998;5.140;2022-08-04T00:32:12;13.44;118.99
65559;DHT22;52203;51.998;5.140;2022-08-04T00:34:38;13.39;118.99
65559;DHT22;52203;51.998;5.140;2022-08-04T00:37:05;13.36;118.99
65559;DHT22;52203;51.998;5.140;2022-08-04T00:39:31;13.36;118.99
65559;DHT22;52203;51.998;5.140;2022-08-04T00:57:46;13.27;118.99
65559;DHT22;52203;51.998;5.140;2022-08-04T01:00:15;13.26;118.99
65559;DHT22;52203;51.998;5.140;2022-08-04T01:05:35;13.20;118.99
65559;DHT22;52203;51.998;5.140;2022-08-04T01:10:47;13.12;118.99
65559;DHT22;52203;51.998;5.140;2022-08-04T01:16:09;13.08;118.99
65559;DHT22;52203;51.998;5.140;2022-08-04T01:30:32;12.97;118.99
65559;DHT22;52203;51.998;5.140;2022-08-04T01:35:50;12.89;118.99
65559;DHT22;52203;51.998;5.140;2022-08-04T01:38:20;12.79;118.99
65559;DHT22;52203;51.998;5.140;2022-08-04T01:40:51;12.80;118.99
65559;DHT22;52203;51.998;5.140;2022-08-04T01:43:19;12.82;118.99
65559;DHT22;52203;51.998;5.140;2022-08-04T01:45:49;12.84;118.99
65559;DHT22;52203;51.998;5.140;2022-08-04T01:48:16;12.90;118.99
65559;DHT22;52203;51.998;5.140;2022-08-04T01:50:43;12.87;118.99
65559;DHT22;52203;51.998;5.140;2022-08-04T01:53:09;12.93;118.99
65559;DHT22;52203;51.998;5.140;2022-08-04T01:55:36;12.90;118.99
65559;DHT22;52203;51.998;5.140;2022-08-04T01:58:04;12.89;118.99
65559;DHT22;52203;51.998;5.140;2022-08-04T02:00:29;12.90;118.99
65559;DHT22;52203;51.998;5.140;2022-08-04T02:02:56;12.94;118.99
65559;DHT22;52203;51.998;5.140;2022-08-04T02:05:23;12.96;118.99
65559;DHT22;52203;51.998;5.140;2022-08-04T02:10:52;12.93;118.99
65559;DHT22;52203;51.998;5.140;2022-08-04T02:13:22;12.94;118.99
65559;DHT22;52203;51.998;5.140;2022-08-04T02:21:15;12.93;118.99
65559;DHT22;52203;51.998;5.140;2022-08-04T02:23:46;12.91;118.99
65559;DHT22;52203;51.998;5.140;2022-08-04T02:26:16;12.90;118.99
65559;DHT22;52203;51.998;5.140;2022-08-04T02:34:08;12.82;118.99
65559;DHT22;52203;51.998;5.140;2022-08-04T02:36:39;12.81;118.99
65559;DHT22;52203;51.998;5.140;2022-08-04T02:39:10;12.82;118.99
65559;DHT22;52203;51.998;5.140;2022-08-04T02:41:36;12.84;118.99
65559;DHT22;52203;51.998;5.140;2022-08-04T02:44:07;12.79;118.99
65559;DHT22;52203;51.998;5.140;2022-08-04T02:46:35;12.67;118.99
65559;DHT22;52203;51.998;5.140;2022-08-04T02:49:03;12.66;118.99
65559;DHT22;52203;51.998;5.140;2022-08-04T02:51:33;12.73;118.99
65559;DHT22;52203;51.998;5.140;2022-08-04T02:54:00;12.74;118.99
65559;DHT22;52203;51.998;5.140;2022-08-04T02:56:30;12.69;118.99
65559;DHT22;52203;51.998;5.140;2022-08-04T02:59:05;12.70;118.99
65559;DHT22;52203;51.998;5.140;2022-08-04T03:01:32;12.70;118.99
65559;DHT22;52203;51.998;5.140;2022-08-04T03:23:28;12.65;118.99
65559;DHT22;52203;51.998;5.140;2022-08-04T03:26:20;12.65;118.99
65559;DHT22;52203;51.998;5.140;2022-08-04T03:34:13;12.69;118.99
65559;DHT22;52203;51.998;5.140;2022-08-04T03:51:23;12.56;118.99
65559;DHT22;52203;51.998;5.140;2022-08-04T04:33:04;12.56;118.99
65559;DHT22;52203;51.998;5.140;2022-08-04T04:39:02;12.69;118.99
65559;DHT22;52203;51.998;5.140;2022-08-04T04:44:27;12.80;118.99
65559;DHT22;52203;51.998;5.140;2022-08-04T04:52:11;13.00;118.99
65559;DHT22;52203;51.998;5.140;2022-08-04T04:54:38;13.05;118.99
65559;DHT22;52203;51.998;5.140;2022-08-04T04:57:17;13.09;118.99
65559;DHT22;52203;51.998;5.140;2022-08-04T05:00:01;13.12;118.99
65559;DHT22;52203;51.998;5.140;2022-08-04T05:03:11;13.23;118.99
65559;DHT22;52203;51.998;5.140;2022-08-04T05:13:36;13.47;118.99
65559;DHT22;52203;51.998;5.140;2022-08-04T05:16:09;13.58;118.99
65559;DHT22;52203;51.998;5.140;2022-08-04T05:18:39;13.64;118.99
65559;DHT22;52203;51.998;5.140;2022-08-04T05:21:25;13.67;118.99
65559;DHT22;52203;51.998;5.140;2022-08-04T05:24:01;13.77;118.99
65559;DHT22;52203;51.998;5.140;2022-08-04T05:26:31;13.83;118.99
65559;DHT22;52203;51.998;5.140;2022-08-04T05:29:02;13.89;118.99
65559;DHT22;52203;51.998;5.140;2022-08-04T05:31:41;13.99;118.99
65559;DHT22;52203;51.998;5.140;2022-08-04T05:34:15;14.06;118.99
65559;DHT22;52203;51.998;5.140;2022-08-04T05:36:50;14.12;118.99
65559;DHT22;52203;51.998;5.140;2022-08-04T05:39:23;14.21;118.99
65559;DHT22;52203;51.998;5.140;2022-08-04T05:41:49;14.24;118.99
65559;DHT22;52203;51.998;5.140;2022-08-04T05:44:16;14.28;118.99
65559;DHT22;52203;51.998;5.140;2022-08-04T05:46:46;14.34;118.99
65559;DHT22;52203;51.998;5.140;2022-08-04T05:49:13;14.42;118.99
65559;DHT22;52203;51.998;5.140;2022-08-04T05:51:39;14.47;118.99
65559;DHT22;52203;51.998;5.140;2022-08-04T05:54:06;14.50;118.99
65559;DHT22;52203;51.998;5.140;2022-08-04T05:56:33;14.57;118.99
65559;DHT22;52203;51.998;5.140;2022-08-04T05:59:02;14.65;118.99
65559;DHT22;52203;51.998;5.140;2022-08-04T06:01:29;14.67;118.99
65559;DHT22;52203;51.998;5.140;2022-08-04T06:04:00;14.75;118.99
65559;DHT22;52203;51.998;5.140;2022-08-04T06:06:28;14.82;118.99
65559;DHT22;52203;51.998;5.140;2022-08-04T06:08:55;14.82;118.99
65559;DHT22;52203;51.998;5.140;2022-08-04T06:11:21;14.84;118.99
65559;DHT22;52203;51.998;5.140;2022-08-04T06:13:55;14.88;118.99
65559;DHT22;52203;51.998;5.140;2022-08-04T06:16:24;14.92;118.99
65559;DHT22;52203;51.998;5.140;2022-08-04T06:18:54;14.94;118.99
65559;DHT22;52203;51.998;5.140;2022-08-04T06:21:23;14.87;118.99
65559;DHT22;52203;51.998;5.140;2022-08-04T06:23:53;14.91;118.99
65559;DHT22;52203;51.998;5.140;2022-08-04T06:26:21;14.96;118.99
65559;DHT22;52203;51.998;5.140;2022-08-04T06:28:49;14.92;118.99
65559;DHT22;52203;51.998;5.140;2022-08-04T06:31:19;14.97;118.99
65559;DHT22;52203;51.998;5.140;2022-08-04T06:34:09;14.88;118.99
65559;DHT22;52203;51.998;5.140;2022-08-04T06:36:37;14.89;118.99
65559;DHT22;52203;51.998;5.140;2022-08-04T06:39:06;14.89;118.99
65559;DHT22;52203;51.998;5.140;2022-08-04T06:41:33;14.89;118.99
65559;DHT22;52203;51.998;5.140;2022-08-04T06:44:02;14.88;118.99
65559;DHT22;52203;51.998;5.140;2022-08-04T06:46:30;14.87;118.99
65559;DHT22;52203;51.998;5.140;2022-08-04T06:48:57;14.92;118.99
65559;DHT22;52203;51.998;5.140;2022-08-04T06:51:23;14.96;118.99
65559;DHT22;52203;51.998;5.140;2022-08-04T06:53:50;15.02;118.99
65559;DHT22;52203;51.998;5.140;2022-08-04T06:56:16;15.03;118.99
65559;DHT22;52203;51.998;5.140;2022-08-04T06:58:44;15.12;118.99
65559;DHT22;52203;51.998;5.140;2022-08-04T07:01:12;15.18;118.99
65559;DHT22;52203;51.998;5.140;2022-08-04T07:03:39;15.22;118.99
65559;DHT22;52203;51.998;5.140;2022-08-04T07:06:04;15.24;118.99
65559;DHT22;52203;51.998;5.140;2022-08-04T07:08:30;15.29;118.99
65559;DHT22;52203;51.998;5.140;2022-08-04T07:10:56;15.37;118.99
65559;DHT22;52203;51.998;5.140;2022-08-04T07:13:23;15.45;118.99
65559;DHT22;52203;51.998;5.140;2022-08-04T07:15:51;15.47;118.99
65559;DHT22;52203;51.998;5.140;2022-08-04T07:18:16;15.57;118.99
65559;DHT22;52203;51.998;5.140;2022-08-04T07:20:43;15.68;118.99
65559;DHT22;52203;51.998;5.140;2022-08-04T07:23:11;15.78;118.99
65559;DHT22;52203;51.998;5.140;2022-08-04T07:25:42;15.82;118.99
65559;DHT22;52203;51.998;5.140;2022-08-04T07:28:08;15.83;118.99
65559;DHT22;52203;51.998;5.140;2022-08-04T07:30:34;15.84;118.99
65559;DHT22;52203;51.998;5.140;2022-08-04T07:33:01;15.86;118.99
65559;DHT22;52203;51.998;5.140;2022-08-04T07:35:28;15.82;118.99
65559;DHT22;52203;51.998;5.140;2022-08-04T07:37:53;15.80;118.99
65559;DHT22;52203;51.998;5.140;2022-08-04T07:40:19;15.90;118.99
65559;DHT22;52203;51.998;5.140;2022-08-04T07:42:54;16.03;118.99
65559;DHT22;52203;51.998;5.140;2022-08-04T07:45:23;16.11;118.99
65559;DHT22;52203;51.998;5.140;2022-08-04T07:47:53;16.20;118.99
65559;DHT22;52203;51.998;5.140;2022-08-04T07:50:19;16.31;118.99
65559;DHT22;52203;51.998;5.140;2022-08-04T07:52:45;16.37;118.99
65559;DHT22;52203;51.998;5.140;2022-08-04T07:55:12;16.52;118.99
65559;DHT22;52203;51.998;5.140;2022-08-04T07:57:37;16.73;118.99
65559;DHT22;52203;51.998;5.140;2022-08-04T08:00:04;16.81;118.99
65559;DHT22;52203;51.998;5.140;2022-08-04T08:02:30;16.84;118.99
65559;DHT22;52203;51.998;5.140;2022-08-04T08:04:58;17.11;118.99
65559;DHT22;52203;51.998;5.140;2022-08-04T08:07:23;17.08;118.99
65559;DHT22;52203;51.998;5.140;2022-08-04T08:09:49;17.38;118.99
65559;DHT22;52203;51.998;5.140;2022-08-04T08:12:15;17.26;118.99
65559;DHT22;52203;51.998;5.140;2022-08-04T08:14:41;17.25;118.99
65559;DHT22;52203;51.998;5.140;2022-08-04T08:17:07;17.29;118.99
65559;DHT22;52203;51.998;5.140;2022-08-04T08:19:33;17.59;118.99
65559;DHT22;52203;51.998;5.140;2022-08-04T08:22:00;17.84;118.99
65559;DHT22;52203;51.998;5.140;2022-08-04T08:24:30;18.24;118.99
65559;DHT22;52203;51.998;5.140;2022-08-04T08:26:57;18.25;118.99
65559;DHT22;52203;51.998;5.140;2022-08-04T08:29:25;18.55;118.99
65559;DHT22;52203;51.998;5.140;2022-08-04T08:31:50;18.87;118.99
65559;DHT22;52203;51.998;5.140;2022-08-04T08:34:17;19.00;118.99
65559;DHT22;52203;51.998;5.140;2022-08-04T08:36:47;19.10;118.99
65559;DHT22;52203;51.998;5.140;2022-08-04T08:39:21;19.30;118.99
65559;DHT22;52203;51.998;5.140;2022-08-04T08:45:27;19.23;118.99
65559;DHT22;52203;51.998;5.140;2022-08-04T08:51:00;19.07;118.99
65559;DHT22;52203;51.998;5.140;2022-08-04T08:58:44;19.61;118.99
65559;DHT22;52203;51.998;5.140;2022-08-04T09:01:17;20.04;118.99
65559;DHT22;52203;51.998;5.140;2022-08-04T09:09:30;20.00;118.99
65559;DHT22;52203;51.998;5.140;2022-08-04T09:15:14;20.62;118.99
65559;DHT22;52203;51.998;5.140;2022-08-04T09:17:49;20.43;118.99
65559;DHT22;52203;51.998;5.140;2022-08-04T09:28:23;19.79;118.99
65559;DHT22;52203;51.998;5.140;2022-08-04T09:31:18;19.95;118.99
65559;DHT22;52203;51.998;5.140;2022-08-04T09:34:03;20.47;118.99
65559;DHT22;52203;51.998;5.140;2022-08-04T09:39:35;20.46;118.99
65559;DHT22;52203;51.998;5.140;2022-08-04T09:45:32;21.00;118.99
65559;DHT22;52203;51.998;5.140;2022-08-04T09:48:14;20.60;118.99
65559;DHT22;52203;51.998;5.140;2022-08-04T09:50:41;20.31;118.99
65559;DHT22;52203;51.998;5.140;2022-08-04T09:53:36;19.99;118.99
65559;DHT22;52203;51.998;5.140;2022-08-04T09:56:33;19.37;118.99
65559;DHT22;52203;51.998;5.140;2022-08-04T09:59:24;19.16;118.99
65559;DHT22;52203;51.998;5.140;2022-08-04T10:01:57;18.91;118.99
65559;DHT22;52203;51.998;5.140;2022-08-04T10:04:27;18.87;118.99
65559;DHT22;52203;51.998;5.140;2022-08-04T10:07:24;18.67;118.99
65559;DHT22;52203;51.998;5.140;2022-08-04T10:10:16;18.61;118.99
65559;DHT22;52203;51.998;5.140;2022-08-04T10:13:27;18.50;118.99
65559;DHT22;52203;51.998;5.140;2022-08-04T10:15:55;18.12;118.99
65559;DHT22;52203;51.998;5.140;2022-08-04T10:22:10;17.51;118.99
65559;DHT22;52203;51.998;5.140;2022-08-04T10:27:53;17.44;118.99
65559;DHT22;52203;51.998;5.140;2022-08-04T10:30:20;17.55;118.99
65559;DHT22;52203;51.998;5.140;2022-08-04T10:32:59;17.39;118.99
65559;DHT22;52203;51.998;5.140;2022-08-04T10:35:31;17.28;118.99
65559;DHT22;52203;51.998;5.140;2022-08-04T10:38:09;17.22;118.99
65559;DHT22;52203;51.998;5.140;2022-08-04T10:40:44;17.17;118.99
65559;DHT22;52203;51.998;5.140;2022-08-04T10:43:41;17.11;118.99
65559;DHT22;52203;51.998;5.140;2022-08-04T10:46:14;17.11;118.99
65559;DHT22;52203;51.998;5.140;2022-08-04T10:53:59;17.24;118.99
65559;DHT22;52203;51.998;5.140;2022-08-04T10:56:35;17.24;118.99
65559;DHT22;52203;51.998;5.140;2022-08-04T10:59:10;17.38;118.99
65559;DHT22;52203;51.998;5.140;2022-08-04T11:01:39;17.62;118.99
65559;DHT22;52203;51.998;5.140;2022-08-04T11:04:36;17.70;118.99
65559;DHT22;52203;51.998;5.140;2022-08-04T11:07:06;17.78;118.99
65559;DHT22;52203;51.998;5.140;2022-08-04T11:09:33;18.00;118.99
65559;DHT22;52203;51.998;5.140;2022-08-04T11:12:06;18.18;118.99
65559;DHT22;52203;51.998;5.140;2022-08-04T11:14:40;18.62;118.99
65559;DHT22;52203;51.998;5.140;2022-08-04T11:17:18;19.36;118.99
65559;DHT22;52203;51.998;5.140;2022-08-04T11:19:59;20.12;118.99
65559;DHT22;52203;51.998;5.140;2022-08-04T11:22:26;20.68;118.99
65559;DHT22;52203;51.998;5.140;2022-08-04T11:30:18;21.75;118.99
65559;DHT22;52203;51.998;5.140;2022-08-04T11:32:54;21.82;118.99
65559;DHT22;52203;51.998;5.140;2022-08-04T11:35:41;21.21;118.99
65559;DHT22;52203;51.998;5.140;2022-08-04T11:38:15;21.47;118.99
65559;DHT22;52203;51.998;5.140;2022-08-04T11:40:46;21.94;118.99
65559;DHT22;52203;51.998;5.140;2022-08-04T11:43:28;21.83;118.99
65559;DHT22;52203;51.998;5.140;2022-08-04T11:46:02;22.14;118.99
65559;DHT22;52203;51.998;5.140;2022-08-04T11:48:40;22.56;118.99
65559;DHT22;52203;51.998;5.140;2022-08-04T11:51:07;22.98;118.99
65559;DHT22;52203;51.998;5.140;2022-08-04T11:53:34;23.23;118.99
65559;DHT22;52203;51.998;5.140;2022-08-04T11:56:04;23.47;118.99
65559;DHT22;52203;51.998;5.140;2022-08-04T11:58:30;23.84;118.99
65559;DHT22;52203;51.998;5.140;2022-08-04T12:04:01;24.49;118.99
65559;DHT22;52203;51.998;5.140;2022-08-04T12:06:35;24.58;118.99
65559;DHT22;52203;51.998;5.140;2022-08-04T12:12:24;24.05;118.99
65559;DHT22;52203;51.998;5.140;2022-08-04T12:15:17;24.08;118.99
65559;DHT22;52203;51.998;5.140;2022-08-04T12:18:13;24.25;118.99
65559;DHT22;52203;51.998;5.140;2022-08-04T12:20:47;24.89;118.99
65559;DHT22;52203;51.998;5.140;2022-08-04T12:23:19;24.34;118.99
65559;DHT22;52203;51.998;5.140;2022-08-04T12:25:47;23.46;118.99
65559;DHT22;52203;51.998;5.140;2022-08-04T12:28:33;22.72;118.99
65559;DHT22;52203;51.998;5.140;2022-08-04T12:39:24;23.07;118.99
65559;DHT22;52203;51.998;5.140;2022-08-04T12:42:12;24.00;118.99
65559;DHT22;52203;51.998;5.140;2022-08-04T12:44:40;23.83;118.99
65559;DHT22;52203;51.998;5.140;2022-08-04T12:47:08;23.13;118.99
65559;DHT22;52203;51.998;5.140;2022-08-04T12:49:37;23.44;118.99
65559;DHT22;52203;51.998;5.140;2022-08-04T12:52:04;23.24;118.99
65559;DHT22;52203;51.998;5.140;2022-08-04T12:54:32;23.42;118.99
65559;DHT22;52203;51.998;5.140;2022-08-04T12:57:03;22.70;118.99
65559;DHT22;52203;51.998;5.140;2022-08-04T12:59:28;22.52;118.99
65559;DHT22;52203;51.998;5.140;2022-08-04T13:01:54;22.49;118.99
65559;DHT22;52203;51.998;5.140;2022-08-04T13:04:23;22.73;118.99
65559;DHT22;52203;51.998;5.140;2022-08-04T13:06:56;23.13;118.99
65559;DHT22;52203;51.998;5.140;2022-08-04T13:09:23;23.40;118.99
65559;DHT22;52203;51.998;5.140;2022-08-04T13:11:53;23.40;118.99
65559;DHT22;52203;51.998;5.140;2022-08-04T13:14:21;22.73;118.99
65559;DHT22;52203;51.998;5.140;2022-08-04T13:16:47;23.31;118.99
65559;DHT22;52203;51.998;5.140;2022-08-04T13:19:20;23.74;118.99
65559;DHT22;52203;51.998;5.140;2022-08-04T13:21:46;23.89;118.99
65559;DHT22;52203;51.998;5.140;2022-08-04T13:24:16;24.30;118.99
65559;DHT22;52203;51.998;5.140;2022-08-04T13:27:06;23.97;118.99
65559;DHT22;52203;51.998;5.140;2022-08-04T13:29:43;24.38;118.99
65559;DHT22;52203;51.998;5.140;2022-08-04T13:32:09;23.67;118.99
65559;DHT22;52203;51.998;5.140;2022-08-04T13:34:35;23.94;118.99
65559;DHT22;52203;51.998;5.140;2022-08-04T13:37:05;23.80;118.99
65559;DHT22;52203;51.998;5.140;2022-08-04T13:39:31;23.67;118.99
65559;DHT22;52203;51.998;5.140;2022-08-04T13:42:02;23.31;118.99
65559;DHT22;52203;51.998;5.140;2022-08-04T13:44:33;23.11;118.99
65559;DHT22;52203;51.998;5.140;2022-08-04T13:47:07;22.88;118.99
65559;DHT22;52203;51.998;5.140;2022-08-04T13:49:34;22.24;118.99
65559;DHT22;52203;51.998;5.140;2022-08-04T13:52:02;22.53;118.99
65559;DHT22;52203;51.998;5.140;2022-08-04T13:55:00;23.03;118.99
65559;DHT22;52203;51.998;5.140;2022-08-04T13:57:30;22.87;118.99
65559;DHT22;52203;51.998;5.140;2022-08-04T14:00:05;22.95;118.99
65559;DHT22;52203;51.998;5.140;2022-08-04T14:02:47;22.32;118.99
65559;DHT22;52203;51.998;5.140;2022-08-04T14:05:18;22.53;118.99
65559;DHT22;52203;51.998;5.140;2022-08-04T14:07:59;22.16;118.99
65559;DHT22;52203;51.998;5.140;2022-08-04T14:10:29;21.52;118.99
65559;DHT22;52203;51.998;5.140;2022-08-04T14:12:56;20.95;118.99
65559;DHT22;52203;51.998;5.140;2022-08-04T14:15:34;21.20;118.99
65559;DHT22;52203;51.998;5.140;2022-08-04T14:18:23;20.93;118.99
65559;DHT22;52203;51.998;5.140;2022-08-04T14:21:13;21.06;118.99
65559;DHT22;52203;51.998;5.140;2022-08-04T14:23:50;21.22;118.99
65559;DHT22;52203;51.998;5.140;2022-08-04T14:26:31;21.47;118.99
65559;DHT22;52203;51.998;5.140;2022-08-04T14:29:12;22.24;118.99
65559;DHT22;52203;51.998;5.140;2022-08-04T14:31:39;22.18;118.99
65559;DHT22;52203;51.998;5.140;2022-08-04T14:34:05;22.80;118.99
65559;DHT22;52203;51.998;5.140;2022-08-04T14:36:41;23.02;118.99
65559;DHT22;52203;51.998;5.140;2022-08-04T14:39:08;23.38;118.99
65559;DHT22;52203;51.998;5.140;2022-08-04T14:41:45;23.34;118.99
65559;DHT22;52203;51.998;5.140;2022-08-04T14:44:10;23.11;118.99
65559;DHT22;52203;51.998;5.140;2022-08-04T14:46:49;22.32;118.99
65559;DHT22;52203;51.998;5.140;2022-08-04T14:49:15;21.83;118.99
65559;DHT22;52203;51.998;5.140;2022-08-04T14:52:06;21.99;118.99
65559;DHT22;52203;51.998;5.140;2022-08-04T14:54:33;21.91;118.99
65559;DHT22;52203;51.998;5.140;2022-08-04T14:57:06;22.79;118.99
65559;DHT22;52203;51.998;5.140;2022-08-04T14:59:42;22.88;118.99
65559;DHT22;52203;51.998;5.140;2022-08-04T15:02:09;22.14;118.99
65559;DHT22;52203;51.998;5.140;2022-08-04T15:04:37;22.04;118.99
65559;DHT22;52203;51.998;5.140;2022-08-04T15:07:03;21.46;118.99
65559;DHT22;52203;51.998;5.140;2022-08-04T15:09:30;21.69;118.99
65559;DHT22;52203;51.998;5.140;2022-08-04T15:11:56;21.60;118.99
65559;DHT22;52203;51.998;5.140;2022-08-04T15:14:21;21.33;118.99
65559;DHT22;52203;51.998;5.140;2022-08-04T15:16:47;21.33;118.99
65559;DHT22;52203;51.998;5.140;2022-08-04T15:19:14;21.16;118.99
65559;DHT22;52203;51.998;5.140;2022-08-04T15:21:40;21.54;118.99
65559;DHT22;52203;51.998;5.140;2022-08-04T15:24:06;21.53;118.99
65559;DHT22;52203;51.998;5.140;2022-08-04T15:26:41;21.84;118.99
65559;DHT22;52203;51.998;5.140;2022-08-04T15:29:13;22.05;118.99
65559;DHT22;52203;51.998;5.140;2022-08-04T15:31:40;22.05;118.99
65559;DHT22;52203;51.998;5.140;2022-08-04T15:34:08;21.77;118.99
65559;DHT22;52203;51.998;5.140;2022-08-04T15:36:55;21.67;118.99
65559;DHT22;52203;51.998;5.140;2022-08-04T15:40:18;21.03;118.99
65559;DHT22;52203;51.998;5.140;2022-08-04T15:42:47;20.42;118.99
65559;DHT22;52203;51.998;5.140;2022-08-04T15:45:24;21.31;118.99
65559;DHT22;52203;51.998;5.140;2022-08-04T15:50:58;22.01;118.99
65559;DHT22;52203;51.998;5.140;2022-08-04T15:58:50;21.81;118.99
65559;DHT22;52203;51.998;5.140;2022-08-04T16:01:17;22.02;118.99
65559;DHT22;52203;51.998;5.140;2022-08-04T16:03:46;21.90;118.99
65559;DHT22;52203;51.998;5.140;2022-08-04T16:18:52;22.66;118.99
65559;DHT22;52203;51.998;5.140;2022-08-04T16:21:20;21.70;118.99
65559;DHT22;52203;51.998;5.140;2022-08-04T16:26:41;21.24;118.99
65559;DHT22;52203;51.998;5.140;2022-08-04T16:32:23;20.04;118.99
65559;DHT22;52203;51.998;5.140;2022-08-04T16:37:20;19.97;118.99
65559;DHT22;52203;51.998;5.140;2022-08-04T16:39:47;19.76;118.99
65559;DHT22;52203;51.998;5.140;2022-08-04T16:42:30;19.42;118.99
65559;DHT22;52203;51.998;5.140;2022-08-04T16:52:47;18.76;118.99
65559;DHT22;52203;51.998;5.140;2022-08-04T16:55:23;18.73;118.99
65559;DHT22;52203;51.998;5.140;2022-08-04T16:57:51;18.50;118.99
65559;DHT22;52203;51.998;5.140;2022-08-04T17:00:30;18.80;118.99
65559;DHT22;52203;51.998;5.140;2022-08-04T17:02:57;18.82;118.99
65559;DHT22;52203;51.998;5.140;2022-08-04T17:05:26;18.62;118.99
65559;DHT22;52203;51.998;5.140;2022-08-04T17:07:53;18.94;118.99
65559;DHT22;52203;51.998;5.140;2022-08-04T17:10:19;19.29;118.99
65559;DHT22;52203;51.998;5.140;2022-08-04T17:12:54;18.96;118.99
65559;DHT22;52203;51.998;5.140;2022-08-04T17:15:21;19.35;118.99
65559;DHT22;52203;51.998;5.140;2022-08-04T17:17:47;19.25;118.99
65559;DHT22;52203;51.998;5.140;2022-08-04T17:20:12;19.42;118.99
65559;DHT22;52203;51.998;5.140;2022-08-04T17:22:38;19.65;118.99
65559;DHT22;52203;51.998;5.140;2022-08-04T17:25:04;19.46;118.99
65559;DHT22;52203;51.998;5.140;2022-08-04T17:27:30;19.52;118.99
65559;DHT22;52203;51.998;5.140;2022-08-04T17:29:56;19.57;118.99
65559;DHT22;52203;51.998;5.140;2022-08-04T17:32:21;19.31;118.99
65559;DHT22;52203;51.998;5.140;2022-08-04T17:34:58;19.40;118.99
65559;DHT22;52203;51.998;5.140;2022-08-04T17:37:24;19.32;118.99
65559;DHT22;52203;51.998;5.140;2022-08-04T17:39:50;19.42;118.99
65559;DHT22;52203;51.998;5.140;2022-08-04T17:42:31;19.38;118.99
65559;DHT22;52203;51.998;5.140;2022-08-04T17:45:15;19.40;118.99
65559;DHT22;52203;51.998;5.140;2022-08-04T17:47:51;19.38;118.99
65559;DHT22;52203;51.998;5.140;2022-08-04T17:50:24;19.27;118.99
65559;DHT22;52203;51.998;5.140;2022-08-04T17:53:05;18.94;118.99
65559;DHT22;52203;51.998;5.140;2022-08-04T17:58:18;18.82;118.99
65559;DHT22;52203;51.998;5.140;2022-08-04T18:00:44;18.65;118.99
65559;DHT22;52203;51.998;5.140;2022-08-04T18:03:26;18.38;118.99
65559;DHT22;52203;51.998;5.140;2022-08-04T18:05:52;18.39;118.99
65559;DHT22;52203;51.998;5.140;2022-08-04T18:08:25;18.32;118.99
65559;DHT22;52203;51.998;5.140;2022-08-04T18:10:52;18.22;118.99
65559;DHT22;52203;51.998;5.140;2022-08-04T18:13:18;18.11;118.99
65559;DHT22;52203;51.998;5.140;2022-08-04T18:15:44;17.92;118.99
65559;DHT22;52203;51.998;5.140;2022-08-04T18:18:18;17.81;118.99
65559;DHT22;52203;51.998;5.140;2022-08-04T18:20:44;17.83;118.99
65559;DHT22;52203;51.998;5.140;2022-08-04T18:23:10;17.85;118.99
65559;DHT22;52203;51.998;5.140;2022-08-04T18:25:36;17.81;118.99
65559;DHT22;52203;51.998;5.140;2022-08-04T18:28:04;17.79;118.99
65559;DHT22;52203;51.998;5.140;2022-08-04T18:30:32;17.68;118.99
65559;DHT22;52203;51.998;5.140;2022-08-04T18:32:58;17.64;118.99
65559;DHT22;52203;51.998;5.140;2022-08-04T18:35:23;17.43;118.99
65559;DHT22;52203;51.998;5.140;2022-08-04T18:37:49;17.40;118.99
65559;DHT22;52203;51.998;5.140;2022-08-04T18:40:17;17.22;118.99
65559;DHT22;52203;51.998;5.140;2022-08-04T18:42:43;17.16;118.99
65559;DHT22;52203;51.998;5.140;2022-08-04T18:45:09;17.03;118.99
65559;DHT22;52203;51.998;5.140;2022-08-04T18:47:35;16.99;118.99
65559;DHT22;52203;51.998;5.140;2022-08-04T18:50:01;16.79;118.99
65559;DHT22;52203;51.998;5.140;2022-08-04T18:52:26;16.69;118.99
65559;DHT22;52203;51.998;5.140;2022-08-04T18:54:52;16.64;118.99
65559;DHT22;52203;51.998;5.140;2022-08-04T18:57:22;16.67;118.99
65559;DHT22;52203;51.998;5.140;2022-08-04T18:59:49;16.56;118.99
65559;DHT22;52203;51.998;5.140;2022-08-04T19:02:14;16.54;118.99
65559;DHT22;52203;51.998;5.140;2022-08-04T19:04:41;16.51;118.99
65559;DHT22;52203;51.998;5.140;2022-08-04T19:07:07;16.33;118.99
65559;DHT22;52203;51.998;5.140;2022-08-04T19:09:33;16.45;118.99
65559;DHT22;52203;51.998;5.140;2022-08-04T19:11:58;16.48;118.99
65559;DHT22;52203;51.998;5.140;2022-08-04T19:14:24;16.56;118.99
65559;DHT22;52203;51.998;5.140;2022-08-04T19:16:49;16.61;118.99
65559;DHT22;52203;51.998;5.140;2022-08-04T19:19:15;16.49;118.99
65559;DHT22;52203;51.998;5.140;2022-08-04T19:21:42;16.46;118.99
65559;DHT22;52203;51.998;5.140;2022-08-04T19:24:07;16.32;118.99
65559;DHT22;52203;51.998;5.140;2022-08-04T19:26:34;16.16;118.99
65559;DHT22;52203;51.998;5.140;2022-08-04T19:29:00;16.10;118.99
65559;DHT22;52203;51.998;5.140;2022-08-04T19:31:26;15.90;118.99
65559;DHT22;52203;51.998;5.140;2022-08-04T19:33:52;15.88;118.99
65559;DHT22;52203;51.998;5.140;2022-08-04T19:36:17;15.74;118.99
65559;DHT22;52203;51.998;5.140;2022-08-04T19:38:44;15.74;118.99
65559;DHT22;52203;51.998;5.140;2022-08-04T19:41:10;15.81;118.99
65559;DHT22;52203;51.998;5.140;2022-08-04T19:43:35;15.66;118.99
65559;DHT22;52203;51.998;5.140;2022-08-04T19:46:01;15.42;118.99
65559;DHT22;52203;51.998;5.140;2022-08-04T19:48:27;15.42;118.99
65559;DHT22;52203;51.998;5.140;2022-08-04T19:50:53;15.36;118.99
65559;DHT22;52203;51.998;5.140;2022-08-04T19:53:18;15.14;118.99
65559;DHT22;52203;51.998;5.140;2022-08-04T19:55:44;15.13;118.99
65559;DHT22;52203;51.998;5.140;2022-08-04T19:58:10;15.03;118.99
65559;DHT22;52203;51.998;5.140;2022-08-04T20:00:37;14.93;118.99